sensor_id;sensor_type;location;lat;lon;timestamp;pressure;altitude;pressure_sealevel;temperature
41593;BMP180;28026;48.562;14.440;2022-07-29T00:00:37;93806.00;;;26.90
41593;BMP180;28026;48.562;14.440;2022-07-29T00:03:08;93807.00;;;26.80
41593;BMP180;28026;48.562;14.440;2022-07-29T00:05:41;93804.00;;;26.80
41593;BMP180;28026;48.562;14.440;2022-07-29T00:08:12;93795.00;;;26.70
41593;BMP180;28026;48.562;14.440;2022-07-29T00:10:43;93799.00;;;26.70
41593;BMP180;28026;48.562;14.440;2022-07-29T00:13:14;93798.00;;;26.70
41593;BMP180;28026;48.562;14.440;2022-07-29T00:15:45;93792.00;;;26.70
41593;BMP180;28026;48.562;14.440;2022-07-29T00:18:16;93789.00;;;26.60
41593;BMP180;28026;48.562;14.440;2022-07-29T00:20:47;93795.00;;;26.60
41593;BMP180;28026;48.562;14.440;2022-07-29T00:23:18;93782.00;;;26.60
41593;BMP180;28026;48.562;14.440;2022-07-29T00:25:48;93782.00;;;26.60
41593;BMP180;28026;48.562;14.440;2022-07-29T00:28:20;93782.00;;;26.50
41593;BMP180;28026;48.562;14.440;2022-07-29T00:30:50;93789.00;;;26.50
41593;BMP180;28026;48.562;14.440;2022-07-29T00:33:21;93786.00;;;26.50
41593;BMP180;28026;48.562;14.440;2022-07-29T00:35:53;93791.00;;;26.50
41593;BMP180;28026;48.562;14.440;2022-07-29T00:38:24;93782.00;;;26.40
41593;BMP180;28026;48.562;14.440;2022-07-29T00:40:55;93780.00;;;26.40
41593;BMP180;28026;48.562;14.440;2022-07-29T00:43:26;93787.00;;;26.30
41593;BMP180;28026;48.562;14.440;2022-07-29T00:45:57;93783.00;;;26.30
41593;BMP180;28026;48.562;14.440;2022-07-29T00:48:29;93779.00;;;26.20
41593;BMP180;28026;48.562;14.440;2022-07-29T00:51:03;93782.00;;;26.20
41593;BMP180;28026;48.562;14.440;2022-07-29T00:53:36;93784.00;;;26.20
41593;BMP180;28026;48.562;14.440;2022-07-29T00:56:07;93777.00;;;26.10
41593;BMP180;28026;48.562;14.440;2022-07-29T00:58:39;93780.00;;;26.10
41593;BMP180;28026;48.562;14.440;2022-07-29T01:01:10;93779.00;;;26.10
41593;BMP180;28026;48.562;14.440;2022-07-29T01:03:41;93775.00;;;26.10
41593;BMP180;28026;48.562;14.440;2022-07-29T01:06:12;93779.00;;;26.00
41593;BMP180;28026;48.562;14.440;2022-07-29T01:08:47;93775.00;;;26.00
41593;BMP180;28026;48.562;14.440;2022-07-29T01:11:19;93772.00;;;25.90
41593;BMP180;28026;48.562;14.440;2022-07-29T01:13:52;93769.00;;;25.90
41593;BMP180;28026;48.562;14.440;2022-07-29T01:16:45;93777.00;;;26.00
41593;BMP180;28026;48.562;14.440;2022-07-29T01:26:00;93802.00;;;25.80
41593;BMP180;28026;48.562;14.440;2022-07-29T01:32:18;93792.00;;;25.60
41593;BMP180;28026;48.562;14.440;2022-07-29T01:35:21;93797.00;;;25.60
41593;BMP180;28026;48.562;14.440;2022-07-29T01:40:46;93805.00;;;25.50
41593;BMP180;28026;48.562;14.440;2022-07-29T01:43:32;93812.00;;;25.50
41593;BMP180;28026;48.562;14.440;2022-07-29T01:46:20;93814.00;;;25.40
41593;BMP180;28026;48.562;14.440;2022-07-29T01:49:07;93810.00;;;25.40
41593;BMP180;28026;48.562;14.440;2022-07-29T01:51:49;93802.00;;;25.30
41593;BMP180;28026;48.562;14.440;2022-07-29T01:54:37;93812.00;;;25.30
41593;BMP180;28026;48.562;14.440;2022-07-29T01:57:16;93802.00;;;25.20
41593;BMP180;28026;48.562;14.440;2022-07-29T01:59:52;93813.00;;;25.20
41593;BMP180;28026;48.562;14.440;2022-07-29T02:02:27;93812.00;;;25.30
41593;BMP180;28026;48.562;14.440;2022-07-29T02:05:02;93811.00;;;25.30
41593;BMP180;28026;48.562;14.440;2022-07-29T02:07:37;93796.00;;;25.30
41593;BMP180;28026;48.562;14.440;2022-07-29T02:10:17;93797.00;;;25.30
41593;BMP180;28026;48.562;14.440;2022-07-29T02:12:53;93803.00;;;25.20
41593;BMP180;28026;48.562;14.440;2022-07-29T02:15:30;93788.00;;;25.20
41593;BMP180;28026;48.562;14.440;2022-07-29T02:18:18;93803.00;;;25.30
41593;BMP180;28026;48.562;14.440;2022-07-29T02:20:55;93807.00;;;25.20
41593;BMP180;28026;48.562;14.440;2022-07-29T02:23:33;93798.00;;;25.20
41593;BMP180;28026;48.562;14.440;2022-07-29T02:26:09;93794.00;;;25.20
41593;BMP180;28026;48.562;14.440;2022-07-29T02:28:41;93795.00;;;25.20
41593;BMP180;28026;48.562;14.440;2022-07-29T02:31:14;93788.00;;;25.20
41593;BMP180;28026;48.562;14.440;2022-07-29T02:33:51;93789.00;;;25.20
41593;BMP180;28026;48.562;14.440;2022-07-29T02:36:25;93785.00;;;25.20
41593;BMP180;28026;48.562;14.440;2022-07-29T02:39:00;93785.00;;;25.30
41593;BMP180;28026;48.562;14.440;2022-07-29T02:41:44;93772.00;;;25.30
41593;BMP180;28026;48.562;14.440;2022-07-29T02:44:21;93777.00;;;25.40
41593;BMP180;28026;48.562;14.440;2022-07-29T02:47:12;93775.00;;;25.30
41593;BMP180;28026;48.562;14.440;2022-07-29T02:50:00;93781.00;;;25.20
41593;BMP180;28026;48.562;14.440;2022-07-29T02:53:00;93776.00;;;25.10
41593;BMP180;28026;48.562;14.440;2022-07-29T02:59:02;93777.00;;;25.10
41593;BMP180;28026;48.562;14.440;2022-07-29T03:01:41;93774.00;;;25.20
41593;BMP180;28026;48.562;14.440;2022-07-29T03:04:16;93777.00;;;25.20
41593;BMP180;28026;48.562;14.440;2022-07-29T03:06:52;93780.00;;;25.20
41593;BMP180;28026;48.562;14.440;2022-07-29T03:09:25;93781.00;;;25.20
41593;BMP180;28026;48.562;14.440;2022-07-29T03:11:57;93767.00;;;25.10
41593;BMP180;28026;48.562;14.440;2022-07-29T03:14:30;93766.00;;;25.20
41593;BMP180;28026;48.562;14.440;2022-07-29T03:17:02;93768.00;;;25.20
41593;BMP180;28026;48.562;14.440;2022-07-29T03:19:33;93772.00;;;25.20
41593;BMP180;28026;48.562;14.440;2022-07-29T03:22:05;93769.00;;;25.20
41593;BMP180;28026;48.562;14.440;2022-07-29T03:24:37;93776.00;;;25.20
41593;BMP180;28026;48.562;14.440;2022-07-29T03:27:08;93778.00;;;25.20
41593;BMP180;28026;48.562;14.440;2022-07-29T03:29:39;93772.00;;;25.10
41593;BMP180;28026;48.562;14.440;2022-07-29T03:32:10;93764.00;;;25.10
41593;BMP180;28026;48.562;14.440;2022-07-29T03:34:41;93763.00;;;25.10
41593;BMP180;28026;48.562;14.440;2022-07-29T03:37:12;93758.00;;;25.20
41593;BMP180;28026;48.562;14.440;2022-07-29T03:39:45;93757.00;;;25.20
41593;BMP180;28026;48.562;14.440;2022-07-29T03:42:19;93757.00;;;25.20
41593;BMP180;28026;48.562;14.440;2022-07-29T03:44:55;93754.00;;;25.30
41593;BMP180;28026;48.562;14.440;2022-07-29T03:47:29;93763.00;;;25.30
41593;BMP180;28026;48.562;14.440;2022-07-29T03:50:07;93756.00;;;25.20
41593;BMP180;28026;48.562;14.440;2022-07-29T03:52:42;93769.00;;;25.30
41593;BMP180;28026;48.562;14.440;2022-07-29T03:55:15;93766.00;;;25.30
41593;BMP180;28026;48.562;14.440;2022-07-29T03:57:49;93773.00;;;25.20
41593;BMP180;28026;48.562;14.440;2022-07-29T04:00:23;93776.00;;;25.20
41593;BMP180;28026;48.562;14.440;2022-07-29T04:02:56;93770.00;;;25.20
41593;BMP180;28026;48.562;14.440;2022-07-29T04:05:28;93769.00;;;25.30
41593;BMP180;28026;48.562;14.440;2022-07-29T04:07:59;93775.00;;;25.30
41593;BMP180;28026;48.562;14.440;2022-07-29T04:10:30;93773.00;;;25.30
41593;BMP180;28026;48.562;14.440;2022-07-29T04:13:01;93776.00;;;25.30
41593;BMP180;28026;48.562;14.440;2022-07-29T04:15:32;93774.00;;;25.30
41593;BMP180;28026;48.562;14.440;2022-07-29T04:18:03;93774.00;;;25.30
41593;BMP180;28026;48.562;14.440;2022-07-29T04:20:34;93772.00;;;25.40
41593;BMP180;28026;48.562;14.440;2022-07-29T04:23:05;93776.00;;;25.40
41593;BMP180;28026;48.562;14.440;2022-07-29T04:25:40;93778.00;;;25.40
41593;BMP180;28026;48.562;14.440;2022-07-29T04:28:12;93781.00;;;25.40
41593;BMP180;28026;48.562;14.440;2022-07-29T04:30:43;93782.00;;;25.40
41593;BMP180;28026;48.562;14.440;2022-07-29T04:33:14;93780.00;;;25.40
41593;BMP180;28026;48.562;14.440;2022-07-29T04:35:45;93783.00;;;25.30
41593;BMP180;28026;48.562;14.440;2022-07-29T04:38:16;93783.00;;;25.30
41593;BMP180;28026;48.562;14.440;2022-07-29T04:40:47;93782.00;;;25.30
41593;BMP180;28026;48.562;14.440;2022-07-29T04:43:18;93777.00;;;25.40
41593;BMP180;28026;48.562;14.440;2022-07-29T04:45:49;93771.00;;;25.40
41593;BMP180;28026;48.562;14.440;2022-07-29T04:48:20;93765.00;;;25.50
41593;BMP180;28026;48.562;14.440;2022-07-29T04:50:52;93769.00;;;25.50
41593;BMP180;28026;48.562;14.440;2022-07-29T04:53:23;93770.00;;;25.50
41593;BMP180;28026;48.562;14.440;2022-07-29T04:55:55;93786.00;;;25.50
41593;BMP180;28026;48.562;14.440;2022-07-29T04:58:26;93789.00;;;25.40
41593;BMP180;28026;48.562;14.440;2022-07-29T05:00:57;93793.00;;;25.30
41593;BMP180;28026;48.562;14.440;2022-07-29T05:03:28;93794.00;;;25.20
41593;BMP180;28026;48.562;14.440;2022-07-29T05:05:59;93802.00;;;25.10
41593;BMP180;28026;48.562;14.440;2022-07-29T05:08:30;93808.00;;;25.00
41593;BMP180;28026;48.562;14.440;2022-07-29T05:11:00;93809.00;;;25.00
41593;BMP180;28026;48.562;14.440;2022-07-29T05:13:31;93815.00;;;25.00
41593;BMP180;28026;48.562;14.440;2022-07-29T05:16:03;93811.00;;;25.00
41593;BMP180;28026;48.562;14.440;2022-07-29T05:18:34;93819.00;;;25.10
41593;BMP180;28026;48.562;14.440;2022-07-29T05:21:05;93816.00;;;25.10
41593;BMP180;28026;48.562;14.440;2022-07-29T05:23:36;93814.00;;;25.20
41593;BMP180;28026;48.562;14.440;2022-07-29T05:26:07;93810.00;;;25.20
41593;BMP180;28026;48.562;14.440;2022-07-29T05:28:38;93810.00;;;25.30
41593;BMP180;28026;48.562;14.440;2022-07-29T05:31:09;93810.00;;;25.40
41593;BMP180;28026;48.562;14.440;2022-07-29T05:33:41;93803.00;;;25.50
41593;BMP180;28026;48.562;14.440;2022-07-29T05:36:12;93803.00;;;25.60
41593;BMP180;28026;48.562;14.440;2022-07-29T05:38:43;93797.00;;;25.60
41593;BMP180;28026;48.562;14.440;2022-07-29T05:41:14;93806.00;;;25.70
41593;BMP180;28026;48.562;14.440;2022-07-29T05:43:45;93809.00;;;25.80
41593;BMP180;28026;48.562;14.440;2022-07-29T05:46:16;93817.00;;;25.80
41593;BMP180;28026;48.562;14.440;2022-07-29T05:48:47;93806.00;;;25.90
41593;BMP180;28026;48.562;14.440;2022-07-29T05:51:18;93804.00;;;25.90
41593;BMP180;28026;48.562;14.440;2022-07-29T05:53:49;93802.00;;;25.90
41593;BMP180;28026;48.562;14.440;2022-07-29T05:56:20;93807.00;;;26.00
41593;BMP180;28026;48.562;14.440;2022-07-29T05:58:52;93797.00;;;25.90
41593;BMP180;28026;48.562;14.440;2022-07-29T06:01:23;93801.00;;;25.90
41593;BMP180;28026;48.562;14.440;2022-07-29T06:03:54;93809.00;;;25.90
41593;BMP180;28026;48.562;14.440;2022-07-29T06:06:25;93811.00;;;25.90
41593;BMP180;28026;48.562;14.440;2022-07-29T06:08:56;93812.00;;;25.80
41593;BMP180;28026;48.562;14.440;2022-07-29T06:11:27;93812.00;;;25.70
41593;BMP180;28026;48.562;14.440;2022-07-29T06:13:58;93798.00;;;25.70
41593;BMP180;28026;48.562;14.440;2022-07-29T06:16:29;93800.00;;;25.70
41593;BMP180;28026;48.562;14.440;2022-07-29T06:19:00;93810.00;;;25.90
41593;BMP180;28026;48.562;14.440;2022-07-29T06:21:31;93802.00;;;26.00
41593;BMP180;28026;48.562;14.440;2022-07-29T06:24:03;93800.00;;;26.10
41593;BMP180;28026;48.562;14.440;2022-07-29T06:26:34;93808.00;;;26.10
41593;BMP180;28026;48.562;14.440;2022-07-29T06:29:06;93804.00;;;26.20
41593;BMP180;28026;48.562;14.440;2022-07-29T06:31:39;93803.00;;;26.20
41593;BMP180;28026;48.562;14.440;2022-07-29T06:34:10;93817.00;;;26.30
41593;BMP180;28026;48.562;14.440;2022-07-29T06:36:41;93813.00;;;26.40
41593;BMP180;28026;48.562;14.440;2022-07-29T06:39:12;93805.00;;;26.40
41593;BMP180;28026;48.562;14.440;2022-07-29T06:41:47;93814.00;;;26.40
41593;BMP180;28026;48.562;14.440;2022-07-29T06:44:22;93815.00;;;26.50
41593;BMP180;28026;48.562;14.440;2022-07-29T06:46:52;93823.00;;;26.50
41593;BMP180;28026;48.562;14.440;2022-07-29T06:49:25;93822.00;;;26.60
41593;BMP180;28026;48.562;14.440;2022-07-29T06:51:56;93817.00;;;26.60
41593;BMP180;28026;48.562;14.440;2022-07-29T06:54:27;93819.00;;;26.70
41593;BMP180;28026;48.562;14.440;2022-07-29T06:56:58;93820.00;;;26.80
41593;BMP180;28026;48.562;14.440;2022-07-29T06:59:29;93822.00;;;26.80
41593;BMP180;28026;48.562;14.440;2022-07-29T07:02:00;93823.00;;;26.90
41593;BMP180;28026;48.562;14.440;2022-07-29T07:04:31;93827.00;;;26.90
41593;BMP180;28026;48.562;14.440;2022-07-29T07:07:02;93828.00;;;26.90
41593;BMP180;28026;48.562;14.440;2022-07-29T07:09:33;93829.00;;;26.90
41593;BMP180;28026;48.562;14.440;2022-07-29T07:12:04;93817.00;;;26.90
41593;BMP180;28026;48.562;14.440;2022-07-29T07:14:36;93832.00;;;26.90
41593;BMP180;28026;48.562;14.440;2022-07-29T07:17:07;93821.00;;;26.90
41593;BMP180;28026;48.562;14.440;2022-07-29T07:19:38;93834.00;;;26.90
41593;BMP180;28026;48.562;14.440;2022-07-29T07:22:09;93831.00;;;26.90
41593;BMP180;28026;48.562;14.440;2022-07-29T07:24:40;93835.00;;;26.90
41593;BMP180;28026;48.562;14.440;2022-07-29T07:27:11;93817.00;;;27.00
41593;BMP180;28026;48.562;14.440;2022-07-29T07:29:42;93839.00;;;27.10
41593;BMP180;28026;48.562;14.440;2022-07-29T07:32:13;93834.00;;;27.20
41593;BMP180;28026;48.562;14.440;2022-07-29T07:34:46;93847.00;;;27.30
41593;BMP180;28026;48.562;14.440;2022-07-29T07:37:17;93848.00;;;27.40
41593;BMP180;28026;48.562;14.440;2022-07-29T07:39:52;93837.00;;;27.40
41593;BMP180;28026;48.562;14.440;2022-07-29T07:42:23;93833.00;;;27.50
41593;BMP180;28026;48.562;14.440;2022-07-29T07:44:55;93846.00;;;27.60
41593;BMP180;28026;48.562;14.440;2022-07-29T07:47:26;93837.00;;;27.70
41593;BMP180;28026;48.562;14.440;2022-07-29T07:49:57;93844.00;;;27.80
41593;BMP180;28026;48.562;14.440;2022-07-29T07:52:28;93846.00;;;27.90
41593;BMP180;28026;48.562;14.440;2022-07-29T07:54:59;93842.00;;;28.00
41593;BMP180;28026;48.562;14.440;2022-07-29T07:57:31;93843.00;;;28.10
41593;BMP180;28026;48.562;14.440;2022-07-29T08:00:03;93837.00;;;28.20
41593;BMP180;28026;48.562;14.440;2022-07-29T08:02:34;93849.00;;;28.40
41593;BMP180;28026;48.562;14.440;2022-07-29T08:05:07;93837.00;;;28.50
41593;BMP180;28026;48.562;14.440;2022-07-29T08:07:38;93843.00;;;28.50
41593;BMP180;28026;48.562;14.440;2022-07-29T08:10:10;93843.00;;;28.50
41593;BMP180;28026;48.562;14.440;2022-07-29T08:12:41;93848.00;;;28.50
41593;BMP180;28026;48.562;14.440;2022-07-29T08:15:12;93845.00;;;28.60
41593;BMP180;28026;48.562;14.440;2022-07-29T08:17:42;93843.00;;;28.60
41593;BMP180;28026;48.562;14.440;2022-07-29T08:20:13;93851.00;;;28.60
41593;BMP180;28026;48.562;14.440;2022-07-29T08:22:44;93850.00;;;28.60
41593;BMP180;28026;48.562;14.440;2022-07-29T08:25:15;93848.00;;;28.60
41593;BMP180;28026;48.562;14.440;2022-07-29T08:27:48;93844.00;;;28.60
41593;BMP180;28026;48.562;14.440;2022-07-29T08:30:19;93856.00;;;28.60
41593;BMP180;28026;48.562;14.440;2022-07-29T08:32:50;93857.00;;;28.60
41593;BMP180;28026;48.562;14.440;2022-07-29T08:35:24;93866.00;;;28.60
41593;BMP180;28026;48.562;14.440;2022-07-29T08:37:55;93862.00;;;28.60
41593;BMP180;28026;48.562;14.440;2022-07-29T08:40:27;93864.00;;;28.60
41593;BMP180;28026;48.562;14.440;2022-07-29T08:43:08;93862.00;;;28.60
41593;BMP180;28026;48.562;14.440;2022-07-29T08:45:49;93870.00;;;28.70
41593;BMP180;28026;48.562;14.440;2022-07-29T08:48:23;93868.00;;;28.70
41593;BMP180;28026;48.562;14.440;2022-07-29T08:50:56;93865.00;;;28.90
41593;BMP180;28026;48.562;14.440;2022-07-29T08:53:28;93868.00;;;28.90
41593;BMP180;28026;48.562;14.440;2022-07-29T08:56:01;93865.00;;;28.90
41593;BMP180;28026;48.562;14.440;2022-07-29T08:58:33;93858.00;;;28.90
41593;BMP180;28026;48.562;14.440;2022-07-29T09:01:06;93855.00;;;29.00
41593;BMP180;28026;48.562;14.440;2022-07-29T09:03:39;93867.00;;;29.00
41593;BMP180;28026;48.562;14.440;2022-07-29T09:06:15;93869.00;;;29.00
41593;BMP180;28026;48.562;14.440;2022-07-29T09:08:48;93863.00;;;29.00
41593;BMP180;28026;48.562;14.440;2022-07-29T09:11:20;93868.00;;;29.00
41593;BMP180;28026;48.562;14.440;2022-07-29T09:13:51;93856.00;;;29.00
41593;BMP180;28026;48.562;14.440;2022-07-29T09:16:22;93854.00;;;29.00
41593;BMP180;28026;48.562;14.440;2022-07-29T09:18:53;93857.00;;;29.10
41593;BMP180;28026;48.562;14.440;2022-07-29T09:21:24;93859.00;;;29.30
41593;BMP180;28026;48.562;14.440;2022-07-29T09:24:14;93857.00;;;29.30
41593;BMP180;28026;48.562;14.440;2022-07-29T09:26:46;93850.00;;;29.50
41593;BMP180;28026;48.562;14.440;2022-07-29T09:29:23;93850.00;;;29.70
41593;BMP180;28026;48.562;14.440;2022-07-29T09:31:55;93849.00;;;29.90
41593;BMP180;28026;48.562;14.440;2022-07-29T09:34:28;93847.00;;;30.20
41593;BMP180;28026;48.562;14.440;2022-07-29T09:37:02;93848.00;;;30.30
41593;BMP180;28026;48.562;14.440;2022-07-29T09:39:37;93851.00;;;30.50
41593;BMP180;28026;48.562;14.440;2022-07-29T09:42:28;93843.00;;;30.60
41593;BMP180;28026;48.562;14.440;2022-07-29T09:45:03;93844.00;;;30.70
41593;BMP180;28026;48.562;14.440;2022-07-29T09:47:46;93840.00;;;30.80
41593;BMP180;28026;48.562;14.440;2022-07-29T09:50:20;93843.00;;;30.90
41593;BMP180;28026;48.562;14.440;2022-07-29T09:52:54;93840.00;;;31.10
41593;BMP180;28026;48.562;14.440;2022-07-29T09:55:25;93839.00;;;31.10
41593;BMP180;28026;48.562;14.440;2022-07-29T10:00:50;93852.00;;;31.10
41593;BMP180;28026;48.562;14.440;2022-07-29T10:03:23;93841.00;;;31.20
41593;BMP180;28026;48.562;14.440;2022-07-29T10:06:09;93850.00;;;31.20
41593;BMP180;28026;48.562;14.440;2022-07-29T10:08:41;93851.00;;;31.20
41593;BMP180;28026;48.562;14.440;2022-07-29T10:11:16;93843.00;;;31.20
41593;BMP180;28026;48.562;14.440;2022-07-29T10:13:48;93852.00;;;31.10
41593;BMP180;28026;48.562;14.440;2022-07-29T10:16:20;93848.00;;;31.00
41593;BMP180;28026;48.562;14.440;2022-07-29T10:18:51;93855.00;;;31.10
41593;BMP180;28026;48.562;14.440;2022-07-29T10:21:22;93852.00;;;31.10
41593;BMP180;28026;48.562;14.440;2022-07-29T10:23:54;93850.00;;;31.10
41593;BMP180;28026;48.562;14.440;2022-07-29T10:26:28;93855.00;;;31.10
41593;BMP180;28026;48.562;14.440;2022-07-29T10:29:01;93855.00;;;31.20
41593;BMP180;28026;48.562;14.440;2022-07-29T10:41:59;93849.00;;;31.10
41593;BMP180;28026;48.562;14.440;2022-07-29T10:44:42;93850.00;;;31.20
41593;BMP180;28026;48.562;14.440;2022-07-29T10:47:25;93851.00;;;31.30
41593;BMP180;28026;48.562;14.440;2022-07-29T10:50:04;93855.00;;;31.20
41593;BMP180;28026;48.562;14.440;2022-07-29T10:52:57;93856.00;;;31.30
41593;BMP180;28026;48.562;14.440;2022-07-29T10:55:39;93848.00;;;31.40
41593;BMP180;28026;48.562;14.440;2022-07-29T10:58:18;93851.00;;;31.50
41593;BMP180;28026;48.562;14.440;2022-07-29T11:00:54;93849.00;;;31.60
41593;BMP180;28026;48.562;14.440;2022-07-29T11:03:44;93844.00;;;31.70
41593;BMP180;28026;48.562;14.440;2022-07-29T11:06:17;93846.00;;;31.80
41593;BMP180;28026;48.562;14.440;2022-07-29T11:09:16;93843.00;;;32.10
41593;BMP180;28026;48.562;14.440;2022-07-29T11:11:49;93849.00;;;32.20
41593;BMP180;28026;48.562;14.440;2022-07-29T11:14:56;93843.00;;;32.70
41593;BMP180;28026;48.562;14.440;2022-07-29T11:17:29;93846.00;;;33.00
41593;BMP180;28026;48.562;14.440;2022-07-29T11:20:46;93843.00;;;33.20
41593;BMP180;28026;48.562;14.440;2022-07-29T11:23:33;93846.00;;;33.50
41593;BMP180;28026;48.562;14.440;2022-07-29T11:28:59;93853.00;;;34.20
41593;BMP180;28026;48.562;14.440;2022-07-29T11:31:50;93849.00;;;34.30
41593;BMP180;28026;48.562;14.440;2022-07-29T11:34:26;93842.00;;;34.50
41593;BMP180;28026;48.562;14.440;2022-07-29T11:45:18;93839.00;;;35.30
41593;BMP180;28026;48.562;14.440;2022-07-29T11:47:54;93843.00;;;35.50
41593;BMP180;28026;48.562;14.440;2022-07-29T11:50:36;93841.00;;;35.60
41593;BMP180;28026;48.562;14.440;2022-07-29T11:53:12;93833.00;;;35.70
41593;BMP180;28026;48.562;14.440;2022-07-29T11:55:44;93834.00;;;35.80
41593;BMP180;28026;48.562;14.440;2022-07-29T11:58:21;93834.00;;;35.90
41593;BMP180;28026;48.562;14.440;2022-07-29T12:00:53;93829.00;;;35.70
41593;BMP180;28026;48.562;14.440;2022-07-29T12:03:29;93836.00;;;35.70
41593;BMP180;28026;48.562;14.440;2022-07-29T12:06:00;93829.00;;;35.70
41593;BMP180;28026;48.562;14.440;2022-07-29T12:08:41;93825.00;;;35.70
41593;BMP180;28026;48.562;14.440;2022-07-29T12:11:18;93820.00;;;36.00
41593;BMP180;28026;48.562;14.440;2022-07-29T12:13:52;93823.00;;;36.20
41593;BMP180;28026;48.562;14.440;2022-07-29T12:16:37;93818.00;;;36.50
41593;BMP180;28026;48.562;14.440;2022-07-29T12:19:08;93820.00;;;36.50
41593;BMP180;28026;48.562;14.440;2022-07-29T12:21:51;93808.00;;;36.20
41593;BMP180;28026;48.562;14.440;2022-07-29T12:24:23;93807.00;;;36.00
41593;BMP180;28026;48.562;14.440;2022-07-29T12:26:58;93804.00;;;36.00
41593;BMP180;28026;48.562;14.440;2022-07-29T12:29:30;93798.00;;;35.90
41593;BMP180;28026;48.562;14.440;2022-07-29T12:32:02;93796.00;;;35.80
41593;BMP180;28026;48.562;14.440;2022-07-29T12:34:36;93797.00;;;35.90
41593;BMP180;28026;48.562;14.440;2022-07-29T12:37:09;93796.00;;;36.00
41593;BMP180;28026;48.562;14.440;2022-07-29T12:39:40;93784.00;;;36.10
41593;BMP180;28026;48.562;14.440;2022-07-29T12:42:13;93788.00;;;36.20
41593;BMP180;28026;48.562;14.440;2022-07-29T12:44:50;93780.00;;;36.30
41593;BMP180;28026;48.562;14.440;2022-07-29T12:47:22;93784.00;;;36.40
41593;BMP180;28026;48.562;14.440;2022-07-29T12:50:13;93779.00;;;36.30
41593;BMP180;28026;48.562;14.440;2022-07-29T12:52:48;93782.00;;;36.20
41593;BMP180;28026;48.562;14.440;2022-07-29T12:55:46;93787.00;;;35.90
41593;BMP180;28026;48.562;14.440;2022-07-29T13:01:11;93779.00;;;35.90
41593;BMP180;28026;48.562;14.440;2022-07-29T13:03:57;93773.00;;;36.10
41593;BMP180;28026;48.562;14.440;2022-07-29T13:06:40;93779.00;;;36.00
41593;BMP180;28026;48.562;14.440;2022-07-29T13:09:20;93775.00;;;35.90
41593;BMP180;28026;48.562;14.440;2022-07-29T13:11:54;93783.00;;;35.80
41593;BMP180;28026;48.562;14.440;2022-07-29T13:14:41;93774.00;;;35.80
41593;BMP180;28026;48.562;14.440;2022-07-29T13:17:21;93769.00;;;36.10
41593;BMP180;28026;48.562;14.440;2022-07-29T13:20:10;93766.00;;;36.20
41593;BMP180;28026;48.562;14.440;2022-07-29T13:22:48;93768.00;;;36.00
41593;BMP180;28026;48.562;14.440;2022-07-29T13:25:30;93774.00;;;36.00
41593;BMP180;28026;48.562;14.440;2022-07-29T13:28:03;93776.00;;;36.00
41593;BMP180;28026;48.562;14.440;2022-07-29T13:30:34;93772.00;;;36.20
41593;BMP180;28026;48.562;14.440;2022-07-29T13:33:05;93770.00;;;36.30
41593;BMP180;28026;48.562;14.440;2022-07-29T13:35:36;93777.00;;;36.40
41593;BMP180;28026;48.562;14.440;2022-07-29T13:38:07;93769.00;;;36.40
41593;BMP180;28026;48.562;14.440;2022-07-29T13:40:37;93775.00;;;36.40
41593;BMP180;28026;48.562;14.440;2022-07-29T13:43:10;93772.00;;;36.00
41593;BMP180;28026;48.562;14.440;2022-07-29T13:45:41;93771.00;;;35.70
41593;BMP180;28026;48.562;14.440;2022-07-29T13:48:12;93763.00;;;35.60
41593;BMP180;28026;48.562;14.440;2022-07-29T13:50:43;93764.00;;;35.70
41593;BMP180;28026;48.562;14.440;2022-07-29T13:53:14;93766.00;;;35.80
41593;BMP180;28026;48.562;14.440;2022-07-29T13:55:45;93756.00;;;35.80
41593;BMP180;28026;48.562;14.440;2022-07-29T13:58:17;93762.00;;;35.80
41593;BMP180;28026;48.562;14.440;2022-07-29T14:00:49;93755.00;;;36.00
41593;BMP180;28026;48.562;14.440;2022-07-29T14:03:20;93752.00;;;36.20
41593;BMP180;28026;48.562;14.440;2022-07-29T14:05:51;93754.00;;;36.30
41593;BMP180;28026;48.562;14.440;2022-07-29T14:08:22;93757.00;;;36.30
41593;BMP180;28026;48.562;14.440;2022-07-29T14:10:53;93756.00;;;36.20
41593;BMP180;28026;48.562;14.440;2022-07-29T14:13:24;93750.00;;;36.10
41593;BMP180;28026;48.562;14.440;2022-07-29T14:15:55;93752.00;;;36.10
41593;BMP180;28026;48.562;14.440;2022-07-29T14:18:26;93745.00;;;36.00
41593;BMP180;28026;48.562;14.440;2022-07-29T14:20:57;93729.00;;;35.90
41593;BMP180;28026;48.562;14.440;2022-07-29T14:23:28;93717.00;;;36.10
41593;BMP180;28026;48.562;14.440;2022-07-29T14:25:59;93727.00;;;36.30
41593;BMP180;28026;48.562;14.440;2022-07-29T14:28:31;93733.00;;;36.30
41593;BMP180;28026;48.562;14.440;2022-07-29T14:31:02;93731.00;;;36.50
41593;BMP180;28026;48.562;14.440;2022-07-29T14:33:33;93738.00;;;36.70
41593;BMP180;28026;48.562;14.440;2022-07-29T14:36:04;93734.00;;;36.80
41593;BMP180;28026;48.562;14.440;2022-07-29T14:38:36;93741.00;;;36.80
41593;BMP180;28026;48.562;14.440;2022-07-29T14:41:08;93735.00;;;36.90
41593;BMP180;28026;48.562;14.440;2022-07-29T14:43:39;93738.00;;;36.90
41593;BMP180;28026;48.562;14.440;2022-07-29T14:46:10;93743.00;;;36.60
41593;BMP180;28026;48.562;14.440;2022-07-29T14:48:41;93748.00;;;36.50
41593;BMP180;28026;48.562;14.440;2022-07-29T14:51:11;93740.00;;;36.40
41593;BMP180;28026;48.562;14.440;2022-07-29T14:53:43;93737.00;;;36.40
41593;BMP180;28026;48.562;14.440;2022-07-29T14:56:14;93741.00;;;36.40
41593;BMP180;28026;48.562;14.440;2022-07-29T14:58:44;93743.00;;;36.40
41593;BMP180;28026;48.562;14.440;2022-07-29T15:01:15;93730.00;;;36.30
41593;BMP180;28026;48.562;14.440;2022-07-29T15:03:46;93728.00;;;36.20
41593;BMP180;28026;48.562;14.440;2022-07-29T15:06:17;93732.00;;;36.10
41593;BMP180;28026;48.562;14.440;2022-07-29T15:08:48;93722.00;;;36.00
41593;BMP180;28026;48.562;14.440;2022-07-29T15:11:19;93724.00;;;36.10
41593;BMP180;28026;48.562;14.440;2022-07-29T15:13:50;93722.00;;;36.20
41593;BMP180;28026;48.562;14.440;2022-07-29T15:16:21;93721.00;;;36.30
41593;BMP180;28026;48.562;14.440;2022-07-29T15:18:52;93712.00;;;36.30